Terminal Aerodrome Forecast
Issued by NWS

Home | Current Version | Previous Version | Text Only | Print | Product List | Glossary On
Versions: 1 2 3 4 5 6 7 8 9 10 11 12 13 14
000
FTUS41 KPHI 021441 AAA
TAFPNE
TAF AMD
KPNE 021441Z 0215/0312 VRB03KT P6SM FEW100
     FM021700 27007KT P6SM SCT250
     FM030000 VRB03KT P6SM SCT250=

USA.gov is the U.S. government's official web portal to all federal, state and local government web resources and services.